Time;durP1;ratioP1;P1;durP2;ratioP2;P2;SDS_P1;SDS_P2;PMS_P1;PMS_P2;Temp;Humidity;BMP_temperature;BMP_pressure;BME280_temperature;BME280_humidity;BME280_pressure;Samples;Min_cycle;Max_cycle;Signal;HPM_P1;HPM_P2
2022/06/27 00:00:48;;;;;;;1.57;1.12;;;;;;;22.39;56.25;100827.62;446648;118;922916;-76
2022/06/27 00:01:53;;;;;;;2.95;1.66;;;;;;;22.39;56.34;100820.11;446375;118;922633;-75
2022/06/27 00:02:58;;;;;;;1.98;1.31;;;;;;;22.39;56.41;100824.84;446581;118;922745;-75
2022/06/27 00:04:01;;;;;;;5.61;1.72;;;;;;;22.38;56.46;100820.42;446684;118;922695;-75
2022/06/27 00:05:05;;;;;;;2.82;1.42;;;;;;;22.37;56.52;100830.70;446664;118;922645;-73
2022/06/27 00:06:09;;;;;;;1.82;1.38;;;;;;;22.38;56.61;100828.76;443245;118;930198;-74
2022/06/27 00:07:12;;;;;;;2.90;1.58;;;;;;;22.37;56.64;100827.09;445751;119;923407;-74
2022/06/27 00:08:16;;;;;;;1.66;1.56;;;;;;;22.37;56.69;100827.09;445826;119;923056;-74
2022/06/27 00:09:19;;;;;;;3.97;1.67;;;;;;;22.37;56.64;100836.27;445823;119;922776;-74
2022/06/27 00:10:23;;;;;;;2.58;1.62;;;;;;;22.36;56.58;100830.98;438345;121;922618;-75
2022/06/27 00:11:26;;;;;;;1.82;1.71;;;;;;;22.36;56.66;100834.59;438036;121;923553;-75
2022/06/27 00:12:30;;;;;;;2.15;1.98;;;;;;;22.35;56.64;100834.88;445863;119;923127;-74
2022/06/27 00:13:33;;;;;;;2.81;2.11;;;;;;;22.35;56.56;100840.43;443555;119;922536;-74
2022/06/27 00:14:37;;;;;;;2.07;1.89;;;;;;;22.34;56.42;100833.20;436405;121;922608;-75
2022/06/27 00:15:40;;;;;;;4.96;2.35;;;;;;;22.33;56.32;100835.16;436331;121;922685;-74
2022/06/27 00:16:43;;;;;;;2.29;1.97;;;;;;;22.32;56.28;100835.46;436388;121;930547;-76
2022/06/27 00:17:48;;;;;;;2.87;1.82;;;;;;;22.31;56.19;100837.41;435819;121;922605;-75
2022/06/27 00:18:52;;;;;;;2.82;2.20;;;;;;;22.30;56.25;100840.46;436352;121;922997;-74
2022/06/27 00:19:55;;;;;;;3.42;2.09;;;;;;;22.30;56.16;100846.85;436439;121;922604;-75
2022/06/27 00:20:59;;;;;;;3.72;1.98;;;;;;;22.29;56.12;100839.63;436347;121;922996;-74
2022/06/27 00:22:04;;;;;;;2.86;2.53;;;;;;;22.28;56.15;100842.69;436281;121;930357;-75
2022/06/27 00:23:07;;;;;;;3.55;2.42;;;;;;;22.28;56.17;100846.30;436233;121;922600;-74
2022/06/27 00:24:10;;;;;;;2.31;2.11;;;;;;;22.27;56.12;100846.60;436370;121;930328;-75
2022/06/27 00:25:14;;;;;;;2.83;2.02;;;;;;;22.27;56.09;100841.88;436469;121;922583;-75
2022/06/27 00:26:19;;;;;;;2.12;1.88;;;;;;;22.26;56.11;100847.72;435933;121;922645;-76
2022/06/27 00:27:22;;;;;;;2.30;2.06;;;;;;;22.24;56.09;100845.21;436440;121;922812;-76
2022/06/27 00:28:26;;;;;;;3.53;1.88;;;;;;;22.25;56.22;100851.60;436436;121;922835;-76
2022/06/27 00:29:29;;;;;;;3.86;2.27;;;;;;;22.23;56.42;100840.77;437999;118;922721;-76
2022/06/27 00:30:32;;;;;;;2.50;2.27;;;;;;;22.23;56.46;100851.88;444887;117;922769;-74
2022/06/27 00:31:35;;;;;;;2.73;2.14;;;;;;;22.22;56.52;100844.66;443700;119;922761;-74
2022/06/27 00:32:39;;;;;;;2.57;2.19;;;;;;;22.23;56.54;100851.05;443644;119;922990;-75
2022/06/27 00:33:43;;;;;;;3.49;2.18;;;;;;;22.22;56.61;100841.08;449388;116;930421;-74
2022/06/27 00:34:46;;;;;;;4.72;2.49;;;;;;;22.21;56.55;100848.58;448528;118;922544;-76
2022/06/27 00:35:50;;;;;;;9.00;2.91;;;;;;;22.20;56.68;100843.30;443176;117;922859;-75
2022/06/27 00:36:54;;;;;;;2.29;2.09;;;;;;;22.21;56.78;100850.52;450635;117;922705;-74
2022/06/27 00:37:57;;;;;;;3.89;2.11;;;;;;;22.21;56.87;100853.30;451246;117;922619;-75
2022/06/27 00:39:00;;;;;;;1.92;1.58;;;;;;;22.20;56.59;100849.69;451264;117;923131;-76
2022/06/27 00:40:06;;;;;;;2.34;2.04;;;;;;;22.20;56.47;100846.08;451155;117;922539;-75
2022/06/27 00:41:09;;;;;;;5.21;2.04;;;;;;;22.18;56.69;100849.12;451094;117;922876;-75
2022/06/27 00:42:13;;;;;;;2.31;1.88;;;;;;;22.18;56.69;100849.12;451213;117;923173;-75
2022/06/27 00:43:16;;;;;;;2.36;1.94;;;;;;;22.18;56.67;100853.85;451214;117;922560;-75
2022/06/27 00:44:34;;;;;;;3.71;1.91;;;;;;;22.18;56.70;100845.52;451230;115;923442;-76
2022/06/27 00:45:44;;;;;;;2.42;2.08;;;;;;;22.26;56.63;100842.98;482477;110;946805;-74
2022/06/27 00:46:48;;;;;;;1.96;1.37;;;;;;;22.14;56.63;100845.27;473973;112;922969;-73
2022/06/27 00:47:51;;;;;;;1.74;1.50;;;;;;;22.13;56.48;100845.55;473987;112;922595;-74
2022/06/27 00:48:55;;;;;;;1.74;1.59;;;;;;;22.12;56.46;100849.44;474007;112;923115;-75
2022/06/27 00:49:58;;;;;;;5.56;1.60;;;;;;;22.11;56.36;100850.58;473889;112;922580;-74
2022/06/27 00:51:02;;;;;;;1.79;1.37;;;;;;;22.10;56.28;100852.52;473955;112;930677;-75
2022/06/27 00:52:08;;;;;;;2.36;1.39;;;;;;;22.10;56.24;100846.13;473919;112;922586;-75
2022/06/27 00:53:12;;;;;;;1.78;1.42;;;;;;;22.10;56.17;100846.13;473839;112;922719;-75
2022/06/27 00:54:15;;;;;;;2.03;1.46;;;;;;;22.10;56.13;100857.23;473929;112;923104;-75
2022/06/27 00:55:18;;;;;;;1.84;1.42;;;;;;;22.10;55.99;100857.23;473846;112;930215;-75
2022/06/27 00:56:24;;;;;;;2.57;1.22;;;;;;;22.09;56.01;100856.41;473218;112;930226;-76
2022/06/27 00:57:28;;;;;;;2.20;1.19;;;;;;;22.09;55.97;100855.57;473989;112;922525;-76
2022/06/27 00:58:31;;;;;;;2.51;1.35;;;;;;;22.08;55.88;100851.13;473993;112;922565;-75
2022/06/27 00:59:35;;;;;;;1.71;1.61;;;;;;;22.08;55.90;100853.91;474019;112;922652;-75
2022/06/27 01:00:38;;;;;;;2.52;1.41;;;;;;;22.07;55.82;100861.41;473943;112;922575;-74
2022/06/27 01:01:42;;;;;;;2.27;1.39;;;;;;;22.07;55.75;100858.62;473904;112;930232;-74
2022/06/27 01:02:45;;;;;;;2.21;1.28;;;;;;;22.07;55.68;100857.79;473979;112;922861;-75
2022/06/27 01:03:49;;;;;;;2.65;1.87;;;;;;;22.07;55.75;100855.02;473962;112;922667;-75
2022/06/27 01:04:52;;;;;;;1.20;1.16;;;;;;;22.04;55.85;100860.04;473998;112;922551;-75
2022/06/27 01:05:56;;;;;;;2.53;1.28;;;;;;;22.03;55.73;100861.15;472111;112;922690;-75
2022/06/27 01:06:59;;;;;;;3.38;1.41;;;;;;;22.02;55.58;100859.48;465483;114;930258;-74
2022/06/27 01:08:03;;;;;;;1.96;1.37;;;;;;;22.03;55.49;100863.92;465548;114;923332;-75
2022/06/27 01:09:07;;;;;;;2.98;1.67;;;;;;;22.01;55.42;100866.14;465524;114;922561;-74
2022/06/27 01:10:11;;;;;;;1.64;1.54;;;;;;;22.01;55.61;100863.37;465388;113;930342;-74
2022/06/27 01:11:15;;;;;;;2.83;1.56;;;;;;;22.00;55.56;100858.92;465514;114;930237;-74
2022/06/27 01:12:18;;;;;;;1.98;1.48;;;;;;;21.99;55.57;100862.84;465577;113;922667;-75
2022/06/27 01:13:22;;;;;;;2.79;1.58;;;;;;;21.99;55.50;100873.95;465545;114;923099;-74
2022/06/27 01:14:26;;;;;;;1.94;1.58;;;;;;;21.97;55.41;100865.06;465395;114;922536;-75
2022/06/27 01:15:29;;;;;;;2.16;1.41;;;;;;;21.98;55.41;100874.22;465524;114;922555;-75
2022/06/27 01:16:33;;;;;;;1.91;1.32;;;;;;;21.97;55.45;100867.00;465561;113;922565;-75
2022/06/27 01:17:37;;;;;;;5.21;1.38;;;;;;;21.96;55.37;100871.72;465453;114;930233;-75
2022/06/27 01:18:40;;;;;;;2.18;1.30;;;;;;;21.95;55.42;100871.99;465576;113;922851;-76
2022/06/27 01:19:44;;;;;;;5.27;1.65;;;;;;;21.94;55.42;100873.10;465504;114;923529;-75
2022/06/27 01:20:47;;;;;;;1.62;1.29;;;;;;;21.93;55.42;100880.59;465453;113;930256;-76
2022/06/27 01:21:53;;;;;;;1.67;1.37;;;;;;;21.92;55.52;100872.55;465601;113;930229;-75
2022/06/27 01:22:56;;;;;;;1.53;1.32;;;;;;;21.92;55.60;100875.32;465433;114;922713;-76
2022/06/27 01:23:59;;;;;;;2.48;1.40;;;;;;;21.93;55.59;100874.21;465619;113;922573;-77
2022/06/27 01:25:03;;;;;;;1.30;1.17;;;;;;;21.91;55.59;100874.48;465630;113;922562;-75
2022/06/27 01:26:09;;;;;;;1.55;1.33;;;;;;;21.90;55.44;100872.81;465427;114;922592;-75
2022/06/27 01:27:13;;;;;;;3.33;1.34;;;;;;;21.89;55.44;100882.25;465486;114;922776;-75
2022/06/27 01:28:16;;;;;;;2.06;1.30;;;;;;;21.89;55.37;100885.03;465505;114;930175;-75
2022/06/27 01:29:21;;;;;;;1.66;1.56;;;;;;;21.89;55.41;100882.25;455660;116;922713;-75
2022/06/27 01:30:26;;;;;;;1.44;1.30;;;;;;;21.89;55.41;100879.48;458139;114;922639;-75
2022/06/27 01:31:30;;;;;;;1.51;1.41;;;;;;;21.89;55.41;100887.80;465582;114;922639;-75
2022/06/27 01:32:34;;;;;;;1.64;1.47;;;;;;;21.89;55.44;100884.20;465557;112;922761;-74
2022/06/27 01:33:38;;;;;;;1.72;1.51;;;;;;;21.89;55.36;100884.20;465935;112;922606;-75
2022/06/27 01:34:42;;;;;;;1.62;1.42;;;;;;;21.88;55.35;100883.39;468962;113;922841;-75
2022/06/27 01:35:45;;;;;;;1.41;1.31;;;;;;;21.88;55.34;100880.62;469030;113;922667;-75
2022/06/27 01:36:49;;;;;;;1.70;1.56;;;;;;;21.88;55.27;100879.78;469061;113;922636;-76
2022/06/27 01:37:54;;;;;;;1.86;1.41;;;;;;;21.87;55.33;100880.89;468930;113;922554;-75
2022/06/27 01:38:58;;;;;;;1.47;1.37;;;;;;;21.87;55.30;100878.11;459723;115;922610;-74
2022/06/27 01:40:01;;;;;;;1.77;1.28;;;;;;;21.87;55.28;100878.95;460092;113;922655;-74
2022/06/27 01:41:06;;;;;;;1.38;1.29;;;;;;;21.86;55.25;100885.61;468905;113;922726;-74
2022/06/27 01:42:10;;;;;;;1.16;1.06;;;;;;;21.86;55.22;100879.22;469020;113;922541;-75
2022/06/27 01:43:13;;;;;;;2.02;1.42;;;;;;;21.85;55.29;100877.55;468979;113;930133;-75
2022/06/27 01:44:18;;;;;;;2.75;1.49;;;;;;;21.85;55.21;100881.16;469300;113;923050;-75
2022/06/27 01:45:21;;;;;;;1.66;1.56;;;;;;;21.85;55.21;100883.11;469488;113;922717;-76
2022/06/27 01:46:39;;;;;;;1.78;1.53;;;;;;;21.83;55.28;100886.16;469392;113;922522;-74
2022/06/27 01:47:43;;;;;;;4.21;1.53;;;;;;;21.84;55.33;100881.44;469326;113;922582;-76
2022/06/27 01:48:47;;;;;;;3.37;1.50;;;;;;;21.83;55.28;100885.35;460075;115;922961;-75
2022/06/27 01:49:51;;;;;;;2.64;1.22;;;;;;;21.83;55.29;100890.91;460817;113;922313;-75
2022/06/27 01:50:58;;;;;;;3.26;1.71;;;;;;;21.82;55.30;100894.78;460027;115;922585;-75
2022/06/27 01:52:04;;;;;;;1.78;1.53;;;;;;;21.80;55.27;100894.23;449374;115;922600;-75
2022/06/27 01:53:09;;;;;;;3.16;1.69;;;;;;;21.80;55.25;100886.73;460781;113;922520;-74
2022/06/27 01:54:14;;;;;;;4.38;2.04;;;;;;;21.79;55.26;100889.78;469540;113;922509;-74
2022/06/27 01:55:20;;;;;;;3.03;1.82;;;;;;;21.79;55.25;100889.78;469232;113;922966;-76
2022/06/27 01:56:26;;;;;;;1.46;1.36;;;;;;;21.78;55.04;100897.27;469079;113;923634;-76
2022/06/27 01:57:29;;;;;;;1.82;1.41;;;;;;;21.78;55.04;100897.27;469578;113;922679;-76
2022/06/27 01:58:33;;;;;;;2.72;1.41;;;;;;;21.77;55.18;100898.41;469423;113;922503;-76
2022/06/27 01:59:37;;;;;;;2.05;1.51;;;;;;;21.78;55.25;100902.83;469532;113;922331;-76
2022/06/27 02:00:42;;;;;;;1.93;1.37;;;;;;;21.78;55.15;100893.66;469339;113;923536;-75
2022/06/27 02:01:46;;;;;;;1.33;1.24;;;;;;;21.77;55.06;100892.86;469660;113;922421;-77
2022/06/27 02:02:49;;;;;;;5.22;1.46;;;;;;;21.78;54.99;100890.89;469494;113;930528;-75
2022/06/27 02:03:54;;;;;;;1.75;1.29;;;;;;;21.78;54.98;100891.72;469573;113;922499;-77
2022/06/27 02:04:57;;;;;;;1.91;1.41;;;;;;;21.78;54.91;100886.17;469598;113;922312;-76
2022/06/27 02:06:01;;;;;;;1.29;1.17;;;;;;;21.78;54.90;100893.66;468846;113;922451;-76
2022/06/27 02:07:04;;;;;;;1.85;1.35;;;;;;;21.78;54.82;100890.89;466408;114;922975;-78
2022/06/27 02:08:08;;;;;;;2.44;1.49;;;;;;;21.79;54.79;100895.33;466232;114;922838;-76
2022/06/27 02:09:14;;;;;;;1.65;1.04;;;;;;;21.79;54.72;100889.78;466190;114;930016;-76
2022/06/27 02:10:18;;;;;;;2.95;1.40;;;;;;;21.78;54.65;100894.50;466210;114;922759;-76
2022/06/27 02:11:21;;;;;;;5.19;1.12;;;;;;;21.78;54.59;100890.89;466431;114;922582;-75
2022/06/27 02:12:29;;;;;;;2.30;1.13;;;;;;;21.78;54.53;100893.66;465972;114;922782;-75
2022/06/27 02:13:33;;;;;;;1.40;1.29;;;;;;;21.76;54.52;100893.13;466163;114;922396;-77
2022/06/27 02:14:36;;;;;;;1.34;1.24;;;;;;;21.76;54.51;100891.19;466251;114;922733;-77
2022/06/27 02:16:06;;;;;;;1.81;1.29;;;;;;;21.76;54.47;100896.74;466325;114;922484;-76
2022/06/27 02:17:11;;;;;;;2.31;1.74;;;;;;;21.76;54.47;100898.69;466002;114;922353;-76
2022/06/27 02:18:14;;;;;;;2.80;1.51;;;;;;;21.74;54.48;100893.41;466234;114;922465;-77
2022/06/27 02:19:20;;;;;;;2.56;1.31;;;;;;;21.74;54.48;100892.58;466238;114;922691;-77
2022/06/27 02:20:25;;;;;;;3.00;1.52;;;;;;;21.73;54.50;100894.52;466145;114;922569;-76
2022/06/27 02:21:29;;;;;;;7.04;1.64;;;;;;;21.74;54.41;100892.58;466090;114;922495;-77
2022/06/27 02:22:32;;;;;;;2.59;1.42;;;;;;;21.73;54.36;100897.29;466318;114;922316;-77
2022/06/27 02:23:36;;;;;;;2.77;1.29;;;;;;;21.74;54.36;100895.34;466279;114;922695;-75
2022/06/27 02:24:40;;;;;;;2.40;1.51;;;;;;;21.73;54.25;100891.73;466276;114;922409;-76
2022/06/27 02:25:45;;;;;;;1.61;1.47;;;;;;;21.74;54.20;100889.80;466153;114;922287;-76
2022/06/27 02:26:50;;;;;;;1.74;1.35;;;;;;;21.73;54.23;100894.52;466126;114;922364;-77
2022/06/27 02:27:54;;;;;;;2.32;1.40;;;;;;;21.72;54.29;100889.27;466162;114;922372;-76
2022/06/27 02:28:59;;;;;;;1.75;1.47;;;;;;;21.71;54.22;100882.05;471343;112;929969;-77
2022/06/27 02:30:05;;;;;;;2.37;1.20;;;;;;;21.71;54.24;100876.50;468085;112;922265;-77
2022/06/27 02:31:09;;;;;;;1.83;1.34;;;;;;;21.72;54.25;100887.33;466302;114;922295;-76
2022/06/27 02:32:14;;;;;;;1.68;1.53;;;;;;;21.71;54.20;100880.11;466227;114;922379;-75
2022/06/27 02:33:17;;;;;;;1.55;1.28;;;;;;;21.71;54.20;100882.05;466149;114;928276;-75
2022/06/27 02:34:20;;;;;;;1.41;1.19;;;;;;;21.71;54.20;100880.11;466365;114;922700;-75
2022/06/27 02:35:24;;;;;;;1.79;1.12;;;;;;;21.71;54.17;100882.05;466229;114;922430;-77
2022/06/27 02:36:32;;;;;;;2.73;1.57;;;;;;;21.71;54.26;100880.11;465936;114;922207;-74
2022/06/27 02:37:37;;;;;;;2.53;1.48;;;;;;;21.71;54.32;100882.88;466225;114;922657;-77
2022/06/27 02:38:43;;;;;;;2.49;1.32;;;;;;;21.71;54.42;100882.88;466067;114;922365;-77
2022/06/27 02:39:48;;;;;;;1.65;1.36;;;;;;;21.71;54.33;100893.98;466017;114;922179;-76
2022/06/27 02:40:52;;;;;;;2.57;1.24;;;;;;;21.71;54.27;100891.20;466263;114;922340;-77
2022/06/27 02:41:58;;;;;;;1.65;1.29;;;;;;;21.72;54.28;100886.48;466122;114;922416;-75
2022/06/27 02:43:03;;;;;;;2.97;1.23;;;;;;;21.73;54.25;100890.91;466020;114;922382;-75
2022/06/27 02:44:09;;;;;;;3.05;1.45;;;;;;;21.72;54.24;100890.10;466099;114;922434;-75
2022/06/27 02:45:15;;;;;;;2.15;1.38;;;;;;;21.73;54.25;100893.68;466025;114;922451;-75
2022/06/27 02:46:22;;;;;;;3.01;1.21;;;;;;;21.74;54.22;100893.41;461906;114;922539;-76
2022/06/27 02:47:28;;;;;;;1.86;1.38;;;;;;;21.76;54.29;100902.30;461005;115;923373;-76
2022/06/27 02:48:32;;;;;;;1.72;1.56;;;;;;;21.78;54.16;100900.05;460907;115;923081;-76
2022/06/27 02:49:36;;;;;;;2.77;1.62;;;;;;;21.79;54.17;100903.66;460861;115;922502;-76
2022/06/27 02:50:42;;;;;;;2.03;1.78;;;;;;;21.80;54.13;100903.39;460903;115;922822;-76
2022/06/27 02:51:52;;;;;;;1.67;1.53;;;;;;;21.81;54.13;100904.22;460877;115;922592;-76
2022/06/27 02:52:56;;;;;;;1.56;1.46;;;;;;;21.81;54.09;100893.95;460785;115;922542;-76
2022/06/27 02:54:03;;;;;;;2.18;1.31;;;;;;;21.84;54.14;100892.55;460954;115;922674;-75
2022/06/27 02:55:17;;;;;;;3.65;1.34;;;;;;;21.84;54.16;100898.92;460735;115;923266;-75
2022/06/27 02:56:26;;;;;;;2.62;1.12;;;;;;;21.85;54.19;100897.82;460556;115;922530;-76
2022/06/27 02:57:55;;;;;;;1.32;1.20;;;;;;;21.86;54.30;100902.27;460884;115;922904;-76
2022/06/27 02:59:13;;;;;;;1.49;1.36;;;;;;;21.88;54.21;100899.22;460820;115;923072;-77
2022/06/27 03:00:17;;;;;;;2.83;1.37;;;;;;;21.90;54.10;100896.97;460905;115;922617;-76
2022/06/27 03:01:22;;;;;;;1.90;1.43;;;;;;;21.91;54.15;100898.64;460966;115;922545;-76
2022/06/27 03:02:28;;;;;;;3.02;1.17;;;;;;;21.91;54.13;100904.19;460960;115;923116;-74
2022/06/27 03:03:42;;;;;;;4.36;1.59;;;;;;;21.93;53.95;100901.98;460697;115;922599;-76
2022/06/27 03:04:46;;;;;;;3.13;1.31;;;;;;;21.94;53.89;100896.15;460814;115;922741;-76
2022/06/27 03:06:00;;;;;;;1.34;1.24;;;;;;;21.94;53.84;100893.38;461569;114;923083;-75
2022/06/27 03:07:04;;;;;;;2.02;1.37;;;;;;;21.95;53.75;100899.76;465597;114;922610;-76
2022/06/27 03:08:07;;;;;;;3.61;1.52;;;;;;;21.95;53.65;100895.04;465666;114;922558;-76
2022/06/27 03:09:13;;;;;;;3.92;1.47;;;;;;;21.97;53.52;100898.37;465250;114;930668;-75
2022/06/27 03:10:18;;;;;;;3.04;1.38;;;;;;;21.98;53.42;100894.49;465554;114;922579;-75
2022/06/27 03:11:24;;;;;;;1.44;1.24;;;;;;;22.00;53.30;100892.24;465539;114;923682;-75
2022/06/27 03:12:27;;;;;;;1.66;1.34;;;;;;;22.02;53.20;100891.97;465634;114;922580;-74
2022/06/27 03:13:31;;;;;;;1.72;1.27;;;;;;;22.03;53.24;100896.41;465760;114;922928;-76
2022/06/27 03:14:34;;;;;;;2.61;1.56;;;;;;;22.04;53.06;100898.91;465625;114;922641;-75
2022/06/27 03:15:38;;;;;;;2.89;1.57;;;;;;;22.04;52.85;100893.36;465706;114;922520;-74
2022/06/27 03:16:42;;;;;;;1.57;1.46;;;;;;;22.06;52.78;100895.83;465648;114;922575;-74
2022/06/27 03:17:45;;;;;;;2.52;1.15;;;;;;;22.07;52.73;100896.67;465717;114;922930;-75
2022/06/27 03:19:05;;;;;;;3.30;1.57;;;;;;;22.07;52.75;100897.50;460642;115;922631;-76
2022/06/27 03:20:13;;;;;;;1.75;1.42;;;;;;;22.09;52.68;100897.23;459679;115;922620;-75
2022/06/27 03:21:29;;;;;;;1.33;1.23;;;;;;;22.09;52.63;100889.73;460296;115;923169;-75
2022/06/27 03:22:35;;;;;;;2.91;1.32;;;;;;;22.09;52.66;100895.28;460656;115;923051;-75
2022/06/27 03:23:39;;;;;;;2.10;1.72;;;;;;;22.10;52.58;100896.12;460840;115;922571;-76
2022/06/27 03:24:43;;;;;;;2.04;1.29;;;;;;;22.09;52.59;100903.62;460291;113;930345;-76
2022/06/27 03:25:47;;;;;;;2.54;1.38;;;;;;;22.11;52.55;100903.34;449284;118;930315;-75
2022/06/27 03:26:51;;;;;;;2.33;1.26;;;;;;;22.11;52.55;100901.37;449905;115;922676;-75
2022/06/27 03:27:56;;;;;;;1.34;1.14;;;;;;;22.14;52.58;100898.04;458273;115;922592;-75
2022/06/27 03:29:00;;;;;;;1.86;1.41;;;;;;;22.14;52.54;100892.48;458274;114;930120;-75
2022/06/27 03:30:04;;;;;;;1.64;1.29;;;;;;;22.17;52.47;100896.62;460859;114;922675;-75
2022/06/27 03:31:08;;;;;;;2.08;1.37;;;;;;;22.17;52.37;100891.91;460856;115;922836;-75
2022/06/27 03:32:13;;;;;;;2.67;1.33;;;;;;;22.19;52.24;100899.96;460616;115;922711;-75
2022/06/27 03:33:18;;;;;;;1.91;1.25;;;;;;;22.20;52.18;100902.47;460109;115;922702;-75
2022/06/27 03:34:24;;;;;;;3.54;1.50;;;;;;;22.21;52.19;100894.97;460152;113;923103;-75
2022/06/27 03:35:32;;;;;;;2.50;1.31;;;;;;;22.23;52.21;100889.94;458736;115;922555;-76
2022/06/27 03:36:38;;;;;;;1.39;1.28;;;;;;;22.25;52.12;100896.05;460678;115;922558;-75
2022/06/27 03:37:41;;;;;;;2.58;1.44;;;;;;;22.27;52.03;100902.16;460703;115;922766;-74
2022/06/27 03:38:44;;;;;;;2.01;1.34;;;;;;;22.29;52.01;100894.36;460825;115;930326;-74
2022/06/27 03:39:48;;;;;;;2.47;1.43;;;;;;;22.30;52.00;100896.86;460861;114;922585;-74
2022/06/27 03:40:51;;;;;;;2.18;1.32;;;;;;;22.32;52.10;100893.80;460815;115;922556;-75
2022/06/27 03:41:55;;;;;;;2.68;1.21;;;;;;;22.33;52.16;100899.05;452251;117;923250;-75
2022/06/27 03:42:58;;;;;;;1.41;1.29;;;;;;;22.34;52.09;100897.94;452670;115;922657;-76
2022/06/27 03:44:01;;;;;;;1.69;1.41;;;;;;;22.35;51.99;100894.05;460852;114;922639;-75
2022/06/27 03:45:05;;;;;;;1.69;1.59;;;;;;;22.36;51.94;100879.05;460744;115;922559;-75
2022/06/27 03:46:10;;;;;;;2.64;1.72;;;;;;;22.38;51.85;100887.11;452689;116;922694;-76
2022/06/27 03:47:13;;;;;;;2.47;1.45;;;;;;;22.39;51.75;100888.74;455917;114;923094;-75
2022/06/27 03:50:00;;;;;;;1.99;1.71;;;;;;;22.41;51.45;100886.52;462600;114;922983;-76
2022/06/27 03:51:11;;;;;;;2.44;1.82;;;;;;;22.42;51.23;100888.19;465276;114;922614;-75
2022/06/27 03:52:14;;;;;;;2.17;1.54;;;;;;;22.42;51.12;100882.63;465431;114;922603;-76
2022/06/27 03:53:17;;;;;;;1.49;1.39;;;;;;;22.41;51.07;100886.52;465529;114;930287;-74
2022/06/27 03:54:21;;;;;;;3.41;1.51;;;;;;;22.42;51.10;100899.30;465485;114;923350;-74
2022/06/27 03:55:24;;;;;;;1.55;1.24;;;;;;;22.43;51.05;100896.25;465433;114;923123;-75
2022/06/27 03:56:28;;;;;;;2.04;1.48;;;;;;;22.43;51.07;100887.91;465458;114;922719;-74
2022/06/27 03:57:31;;;;;;;4.04;1.80;;;;;;;22.44;51.08;100892.33;465383;114;925347;-75
2022/06/27 03:58:35;;;;;;;2.27;1.47;;;;;;;22.46;51.13;100900.38;465449;114;930374;-75
2022/06/27 03:59:38;;;;;;;2.15;1.54;;;;;;;22.47;51.14;100896.50;465506;114;922574;-75
2022/06/27 04:00:41;;;;;;;5.54;1.54;;;;;;;22.48;51.06;100895.38;465354;114;922991;-76
2022/06/27 04:01:46;;;;;;;1.81;1.52;;;;;;;22.50;50.94;100901.47;465516;114;922579;-75
2022/06/27 04:02:50;;;;;;;1.88;1.34;;;;;;;22.52;50.94;100896.47;465366;114;922529;-75
2022/06/27 04:03:58;;;;;;;2.39;1.54;;;;;;;22.54;50.94;100896.19;458253;114;930169;-74
2022/06/27 04:05:03;;;;;;;1.68;1.46;;;;;;;22.55;50.85;100900.63;455336;116;922630;-75
2022/06/27 04:06:06;;;;;;;2.13;1.64;;;;;;;22.58;50.79;100902.83;463874;112;922801;-76
2022/06/27 04:07:10;;;;;;;4.71;1.43;;;;;;;22.58;50.71;100905.61;473749;112;922650;-75
2022/06/27 04:08:15;;;;;;;2.30;1.52;;;;;;;22.61;50.69;100907.80;473693;112;923259;-75
2022/06/27 04:09:18;;;;;;;1.68;1.50;;;;;;;22.62;50.63;100913.08;473856;112;922643;-76
2022/06/27 04:10:23;;;;;;;1.91;1.34;;;;;;;22.65;50.22;100918.08;473739;112;922578;-75
2022/06/27 04:11:27;;;;;;;1.41;1.31;;;;;;;22.65;50.22;100918.08;473820;112;923273;-75
2022/06/27 04:12:32;;;;;;;1.92;1.49;;;;;;;22.67;50.51;100907.48;473634;112;930265;-74
2022/06/27 04:13:54;;;;;;;2.03;1.74;;;;;;;22.69;50.47;100916.38;473684;112;922606;-75
2022/06/27 04:15:15;;;;;;;3.38;1.27;;;;;;;22.71;50.44;100913.33;466035;112;922629;-72
2022/06/27 04:16:38;;;;;;;2.94;1.85;;;;;;;22.73;50.50;100913.88;465328;114;922770;-75
2022/06/27 04:18:00;;;;;;;2.00;1.82;;;;;;;22.75;50.33;100920.83;465320;114;923014;-76
2022/06/27 04:19:23;;;;;;;1.91;1.72;;;;;;;22.75;50.03;100912.48;461985;114;922641;-76
2022/06/27 04:20:37;;;;;;;2.50;1.84;;;;;;;22.75;50.03;100912.48;463863;114;922706;-76
2022/06/27 04:21:41;;;;;;;4.34;1.77;;;;;;;22.76;49.89;100914.16;465418;114;923068;-75
2022/06/27 04:22:46;;;;;;;5.66;2.19;;;;;;;22.77;49.81;100912.20;464890;113;930286;-75
2022/06/27 04:24:07;;;;;;;2.45;2.26;;;;;;;22.78;49.70;100913.84;465282;114;922630;-75
2022/06/27 04:25:13;;;;;;;3.53;2.08;;;;;;;22.78;49.65;100906.34;465221;113;922699;-75
2022/06/27 04:26:18;;;;;;;3.31;2.42;;;;;;;22.82;49.19;100909.39;464770;113;923224;-77
2022/06/27 04:27:22;;;;;;;2.74;2.06;;;;;;;22.82;49.19;100909.39;465480;114;922652;-75
2022/06/27 04:28:25;;;;;;;4.21;2.05;;;;;;;22.83;49.49;100897.96;465495;114;922965;-76
2022/06/27 04:29:30;;;;;;;3.09;2.26;;;;;;;22.85;49.44;100909.64;465499;114;922474;-75
2022/06/27 04:30:34;;;;;;;2.72;2.22;;;;;;;22.87;49.35;100914.92;465365;114;922747;-74
2022/06/27 04:31:38;;;;;;;6.04;2.24;;;;;;;22.89;49.31;100909.88;465377;114;922567;-75
2022/06/27 04:32:41;;;;;;;2.11;1.87;;;;;;;22.91;49.21;100907.66;465422;114;922619;-76
2022/06/27 04:33:45;;;;;;;3.38;2.46;;;;;;;22.92;49.23;100914.87;465341;112;923461;-75
2022/06/27 04:34:49;;;;;;;4.12;1.98;;;;;;;22.95;49.28;100922.63;465356;114;922595;-75
2022/06/27 04:35:52;;;;;;;2.98;2.03;;;;;;;22.98;49.17;100919.29;465429;114;922601;-75
2022/06/27 04:36:56;;;;;;;3.17;1.86;;;;;;;22.99;48.99;100914.56;455665;116;930390;-75
2022/06/27 04:38:01;;;;;;;2.50;2.02;;;;;;;23.01;48.87;100917.86;456339;114;923354;-77
2022/06/27 04:39:13;;;;;;;2.70;2.04;;;;;;;23.03;48.76;100921.20;462092;114;923087;-76
2022/06/27 04:40:20;;;;;;;2.52;2.02;;;;;;;23.03;48.56;100910.91;464723;114;922639;-75
2022/06/27 04:41:25;;;;;;;3.29;2.36;;;;;;;23.06;48.41;100910.31;465421;114;922899;-75
2022/06/27 04:42:29;;;;;;;3.32;2.20;;;;;;;23.06;48.40;100913.09;465378;114;923046;-76
2022/06/27 04:43:35;;;;;;;3.89;2.23;;;;;;;23.09;48.33;100908.92;465325;114;930326;-75
2022/06/27 04:44:43;;;;;;;3.55;1.97;;;;;;;23.11;48.46;100912.22;465317;114;922635;-78
2022/06/27 04:45:49;;;;;;;3.99;2.23;;;;;;;23.11;48.46;100912.22;455574;116;922911;-75
2022/06/27 04:46:54;;;;;;;2.76;2.43;;;;;;;23.13;48.33;100913.61;452498;114;922805;-75
2022/06/27 04:48:16;;;;;;;3.54;2.01;;;;;;;23.15;48.26;100902.20;465311;114;922876;-76
2022/06/27 04:49:20;;;;;;;4.01;2.70;;;;;;;23.17;48.21;100911.06;465349;112;923046;-75
2022/06/27 04:50:25;;;;;;;2.98;2.72;;;;;;;23.19;48.22;100914.39;465312;114;930716;-76
2022/06/27 04:51:30;;;;;;;5.88;2.96;;;;;;;23.23;48.15;100915.47;465260;114;922662;-76
2022/06/27 04:52:34;;;;;;;3.11;2.68;;;;;;;23.23;48.15;100915.47;465457;114;922600;-76
2022/06/27 04:53:38;;;;;;;3.86;2.39;;;;;;;23.24;48.53;100917.97;465378;114;922504;-76
2022/06/27 04:54:43;;;;;;;2.95;2.42;;;;;;;23.26;48.55;100912.95;465320;114;922986;-76
2022/06/27 04:55:47;;;;;;;3.82;2.53;;;;;;;23.28;48.71;100915.42;465388;114;922535;-74
2022/06/27 04:56:52;;;;;;;3.47;2.27;;;;;;;23.31;48.71;100914.86;465361;114;923045;-75
2022/06/27 04:57:55;;;;;;;2.85;2.02;;;;;;;23.32;48.74;100919.31;465277;114;922610;-76
2022/06/27 04:58:59;;;;;;;3.24;2.38;;;;;;;23.34;48.80;100913.42;465355;114;922555;-75
2022/06/27 05:00:07;;;;;;;2.77;2.26;;;;;;;23.36;48.80;100917.59;465418;114;923229;-74
2022/06/27 05:01:18;;;;;;;2.71;1.80;;;;;;;23.37;48.76;100922.04;440353;120;923256;-76
2022/06/27 05:02:24;;;;;;;3.84;2.34;;;;;;;23.39;48.49;100919.78;461531;114;922591;-75